createdAt,value
2023-04-16T00:01:14.125Z,6.20
2023-04-16T00:03:42.228Z,6.15
2023-04-16T00:06:11.611Z,6.08
2023-04-16T00:08:41.105Z,6.05
2023-04-16T00:11:09.284Z,6.02
2023-04-16T00:13:37.356Z,6.02
2023-04-16T00:16:05.429Z,6.07
2023-04-16T00:18:33.491Z,6.09
2023-04-16T00:21:01.343Z,6.07
2023-04-16T00:23:29.326Z,6.09
2023-04-16T00:26:00.004Z,6.12
2023-04-16T00:28:28.331Z,6.14
2023-04-16T00:30:56.278Z,6.17
2023-04-16T00:33:24.345Z,6.14
2023-04-16T00:35:52.529Z,6.05
2023-04-16T00:38:20.908Z,6.03
2023-04-16T00:40:48.808Z,6.01
2023-04-16T00:43:24.950Z,6.07
2023-04-16T00:45:53.655Z,6.24
2023-04-16T00:48:21.620Z,6.29
2023-04-16T00:50:49.538Z,6.28
2023-04-16T00:53:17.430Z,6.31
2023-04-16T00:55:46.038Z,6.31
2023-04-16T00:58:14.121Z,6.30
2023-04-16T01:00:42.726Z,6.31
2023-04-16T01:03:11.402Z,6.26
2023-04-16T01:05:39.715Z,6.23
2023-04-16T01:08:14.964Z,6.17
2023-04-16T01:10:42.932Z,6.11
2023-04-16T01:13:11.211Z,6.07
2023-04-16T01:15:39.391Z,6.00
2023-04-16T01:18:16.967Z,5.90
2023-04-16T01:20:45.821Z,5.83
2023-04-16T01:23:13.773Z,5.75
2023-04-16T01:25:41.784Z,5.63
2023-04-16T01:28:10.111Z,5.60
2023-04-16T01:30:38.216Z,5.53
2023-04-16T01:33:14.099Z,5.47
2023-04-16T01:35:42.114Z,5.41
2023-04-16T01:38:10.898Z,5.34
2023-04-16T01:40:38.893Z,5.30
2023-04-16T01:43:06.788Z,5.29
2023-04-16T01:45:35.377Z,5.28
2023-04-16T01:48:03.877Z,5.25
2023-04-16T01:50:31.991Z,5.23
2023-04-16T01:53:02.107Z,5.18
2023-04-16T01:55:29.990Z,5.15
2023-04-16T01:57:58.088Z,5.16
2023-04-16T02:00:27.885Z,5.17
2023-04-16T02:02:56.113Z,5.17
2023-04-16T02:05:27.020Z,5.11
2023-04-16T02:07:55.034Z,5.06
2023-04-16T02:10:23.560Z,5.05
2023-04-16T02:12:51.936Z,5.06
2023-04-16T02:15:20.470Z,5.06
2023-04-16T02:17:51.160Z,5.06
2023-04-16T02:20:19.450Z,5.04
2023-04-16T02:22:52.197Z,5.02
2023-04-16T02:25:22.476Z,4.99
2023-04-16T02:27:51.082Z,4.95
2023-04-16T02:30:31.319Z,4.91
2023-04-16T02:32:59.475Z,4.91
2023-04-16T02:35:28.086Z,4.90
2023-04-16T02:37:56.019Z,4.86
2023-04-16T02:40:24.006Z,4.80
2023-04-16T02:42:52.050Z,4.68
2023-04-16T02:45:21.038Z,4.66
2023-04-16T02:47:49.299Z,4.59
2023-04-16T02:50:17.798Z,4.54
2023-04-16T02:52:45.853Z,4.54
2023-04-16T02:55:13.825Z,4.51
2023-04-16T02:57:42.668Z,4.49
2023-04-16T03:00:10.946Z,4.48
2023-04-16T03:02:39.129Z,4.47
2023-04-16T03:05:07.298Z,4.46
2023-04-16T03:07:35.500Z,4.44
2023-04-16T03:10:03.821Z,4.43
2023-04-16T03:12:31.786Z,4.44
2023-04-16T03:14:59.745Z,4.45
2023-04-16T03:17:27.616Z,4.46
2023-04-16T03:19:55.658Z,4.43
2023-04-16T03:22:23.654Z,4.42
2023-04-16T03:24:51.667Z,4.41
2023-04-16T03:27:19.619Z,4.39
2023-04-16T03:29:47.861Z,4.39
2023-04-16T03:32:16.289Z,4.37
2023-04-16T03:34:44.566Z,4.34
2023-04-16T03:37:12.608Z,4.30
2023-04-16T03:39:40.965Z,4.28
2023-04-16T03:42:10.334Z,4.27
2023-04-16T03:44:38.456Z,4.25
2023-04-16T03:47:06.430Z,4.20
2023-04-16T03:49:34.430Z,4.17
2023-04-16T03:52:02.946Z,4.16
2023-04-16T03:54:30.997Z,4.17
2023-04-16T03:57:07.731Z,4.16
2023-04-16T03:59:35.990Z,4.16
2023-04-16T04:02:04.214Z,4.22
2023-04-16T04:04:33.232Z,4.22
2023-04-16T04:07:01.294Z,4.22
2023-04-16T04:09:29.249Z,4.25
2023-04-16T04:11:57.261Z,4.25
2023-04-16T04:14:25.342Z,4.29
2023-04-16T04:16:53.312Z,4.37
2023-04-16T04:19:21.353Z,4.41
2023-04-16T04:21:49.520Z,4.41
2023-04-16T04:24:18.208Z,4.44
2023-04-16T04:26:46.363Z,4.45
2023-04-16T04:29:14.459Z,4.55
2023-04-16T04:31:42.435Z,4.71
2023-04-16T04:34:11.282Z,4.83
2023-04-16T04:36:39.365Z,4.94
2023-04-16T04:39:07.524Z,5.14
2023-04-16T04:41:36.301Z,5.51
2023-04-16T04:44:05.173Z,5.72
2023-04-16T04:46:33.123Z,5.81
2023-04-16T04:49:01.014Z,5.97
2023-04-16T04:51:28.910Z,6.18
2023-04-16T04:53:58.302Z,6.49
2023-04-16T04:56:26.343Z,6.87
2023-04-16T04:58:56.224Z,7.18
2023-04-16T05:01:24.182Z,7.50
2023-04-16T05:03:52.114Z,7.75
2023-04-16T05:06:20.146Z,7.85
2023-04-16T05:08:48.118Z,7.88
2023-04-16T05:11:16.022Z,8.06
2023-04-16T05:13:43.999Z,8.31
2023-04-16T05:16:11.886Z,8.48
2023-04-16T05:18:39.753Z,8.66
2023-04-16T05:21:07.684Z,8.90
2023-04-16T05:23:35.607Z,9.04
2023-04-16T05:26:03.564Z,9.11
2023-04-16T05:28:31.509Z,9.12
2023-04-16T05:30:59.481Z,9.15
2023-04-16T05:33:27.678Z,9.29
2023-04-16T05:35:55.600Z,9.34
2023-04-16T05:38:23.814Z,9.19
2023-04-16T05:40:51.819Z,8.87
2023-04-16T05:43:19.716Z,8.92
2023-04-16T05:45:47.646Z,9.07
2023-04-16T05:48:15.540Z,9.02
2023-04-16T05:50:43.705Z,8.92
2023-04-16T05:53:14.228Z,9.08
2023-04-16T05:55:42.276Z,9.21
2023-04-16T05:58:10.315Z,9.45
2023-04-16T06:00:38.264Z,9.75
2023-04-16T06:03:06.274Z,9.96
2023-04-16T06:05:34.992Z,10.19
2023-04-16T06:08:03.026Z,10.20
2023-04-16T06:10:31.512Z,10.15
2023-04-16T06:12:59.478Z,10.23
2023-04-16T06:15:27.372Z,10.42
2023-04-16T06:17:56.313Z,10.56
2023-04-16T06:20:24.291Z,10.66
2023-04-16T06:22:52.251Z,10.75
2023-04-16T06:25:20.224Z,10.86
2023-04-16T06:27:48.223Z,10.97
2023-04-16T06:30:16.450Z,10.98
2023-04-16T06:32:44.548Z,10.91
2023-04-16T06:35:12.810Z,11.04
2023-04-16T06:37:41.352Z,11.08
2023-04-16T06:40:09.543Z,11.09
2023-04-16T06:42:37.487Z,11.16
2023-04-16T06:45:05.962Z,11.19
2023-04-16T06:47:33.844Z,11.22
2023-04-16T06:50:01.922Z,11.21
2023-04-16T06:52:30.027Z,11.26
2023-04-16T06:54:57.957Z,11.30
2023-04-16T06:57:25.866Z,11.42
2023-04-16T06:59:53.724Z,11.56
2023-04-16T07:02:21.734Z,11.68
2023-04-16T07:04:49.837Z,11.79
2023-04-16T07:07:17.830Z,11.85
2023-04-16T07:09:45.806Z,11.88
2023-04-16T07:12:13.792Z,11.90
2023-04-16T07:14:41.885Z,11.94
2023-04-16T07:17:09.854Z,11.99
2023-04-16T07:19:37.859Z,12.11
2023-04-16T07:22:05.922Z,12.08
2023-04-16T07:24:33.909Z,12.24
2023-04-16T07:27:01.865Z,12.33
2023-04-16T07:29:29.726Z,12.41
2023-04-16T07:31:58.065Z,12.50
2023-04-16T07:34:26.094Z,12.60
2023-04-16T07:36:53.953Z,12.72
2023-04-16T07:39:21.806Z,12.83
2023-04-16T07:41:49.821Z,12.99
2023-04-16T07:44:17.747Z,13.09
2023-04-16T07:46:47.245Z,13.23
2023-04-16T07:49:15.703Z,13.41
2023-04-16T07:51:44.021Z,13.56
2023-04-16T07:54:11.937Z,13.71
2023-04-16T07:56:40.229Z,13.84
2023-04-16T07:59:21.952Z,14.02
2023-04-16T08:01:52.681Z,14.19
2023-04-16T08:04:25.007Z,14.28
2023-04-16T08:06:54.428Z,14.33
2023-04-16T08:09:23.337Z,14.43
2023-04-16T08:11:51.464Z,14.56
2023-04-16T08:14:19.482Z,14.69
2023-04-16T08:16:47.549Z,14.82
2023-04-16T08:19:15.476Z,14.95
2023-04-16T08:21:43.727Z,15.13
2023-04-16T08:24:12.028Z,15.25
2023-04-16T08:26:40.103Z,15.13
2023-04-16T08:29:08.157Z,15.15
2023-04-16T08:31:36.313Z,15.18
2023-04-16T08:34:04.198Z,15.21
2023-04-16T08:36:32.124Z,15.24
2023-04-16T08:38:59.995Z,15.22
2023-04-16T08:41:31.125Z,15.25
2023-04-16T08:44:00.477Z,15.34
2023-04-16T08:46:29.116Z,15.45
2023-04-16T08:48:59.250Z,15.57
2023-04-16T08:51:30.059Z,15.70
2023-04-16T08:54:05.125Z,15.84
2023-04-16T08:56:35.621Z,16.00
2023-04-16T08:59:05.780Z,16.17
2023-04-16T09:01:34.594Z,16.29
2023-04-16T09:04:04.125Z,16.48
2023-04-16T09:06:33.261Z,16.68
2023-04-16T09:09:05.103Z,16.81
2023-04-16T09:11:34.645Z,16.87
2023-04-16T09:14:03.284Z,16.98
2023-04-16T09:16:34.164Z,17.19
2023-04-16T09:19:02.126Z,17.43
2023-04-16T09:21:30.059Z,17.63
2023-04-16T09:23:58.542Z,17.74
2023-04-16T09:26:27.470Z,17.73
2023-04-16T09:28:55.413Z,17.75
2023-04-16T09:31:23.510Z,17.78
2023-04-16T09:34:02.633Z,17.85
2023-04-16T09:36:31.614Z,17.95
2023-04-16T09:38:59.939Z,17.94
2023-04-16T09:41:32.172Z,18.08
2023-04-16T09:44:02.054Z,18.14
2023-04-16T09:46:30.305Z,18.21
2023-04-16T09:48:58.500Z,18.31
2023-04-16T09:51:27.041Z,18.19
2023-04-16T09:53:57.045Z,18.12
2023-04-16T09:56:27.939Z,18.22
2023-04-16T09:59:02.357Z,17.85
2023-04-16T10:01:31.036Z,17.84
2023-04-16T10:04:01.117Z,17.96
2023-04-16T10:06:29.314Z,17.85
2023-04-16T10:08:57.345Z,17.89
2023-04-16T10:11:26.128Z,17.88
2023-04-16T10:13:54.055Z,17.75
2023-04-16T10:16:23.040Z,17.78
2023-04-16T10:18:51.007Z,17.94
2023-04-16T10:21:19.404Z,18.10
2023-04-16T10:23:49.806Z,18.28
2023-04-16T10:26:18.296Z,18.19
2023-04-16T10:28:46.292Z,17.73
2023-04-16T10:31:14.487Z,17.86
2023-04-16T10:33:42.879Z,17.78
2023-04-16T10:36:11.931Z,17.56
2023-04-16T10:38:41.222Z,17.53
2023-04-16T10:41:09.725Z,17.42
2023-04-16T10:43:48.059Z,17.44
2023-04-16T10:46:18.960Z,17.67
2023-04-16T10:48:50.439Z,17.45
2023-04-16T10:51:26.339Z,17.56
2023-04-16T10:53:55.305Z,17.87
2023-04-16T10:56:24.023Z,17.79
2023-04-16T10:58:53.331Z,17.83
2023-04-16T11:01:29.226Z,17.90
2023-04-16T11:03:58.748Z,17.81
2023-04-16T11:06:27.818Z,17.90
2023-04-16T11:08:55.810Z,17.77
2023-04-16T11:11:23.960Z,17.94
2023-04-16T11:13:55.183Z,18.15
2023-04-16T11:16:24.765Z,18.30
2023-04-16T11:18:54.473Z,18.21
2023-04-16T11:21:24.535Z,18.41
2023-04-16T11:23:53.517Z,18.43
2023-04-16T11:26:23.466Z,18.58
2023-04-16T11:28:51.979Z,18.69
2023-04-16T11:31:20.127Z,18.79
2023-04-16T11:33:48.151Z,18.79
2023-04-16T11:36:16.347Z,18.83
2023-04-16T11:38:47.705Z,18.91
2023-04-16T11:41:22.122Z,18.37
2023-04-16T11:43:50.186Z,18.29
2023-04-16T11:46:27.333Z,18.24
2023-04-16T11:48:56.265Z,18.64
2023-04-16T11:51:24.440Z,18.86
2023-04-16T11:53:54.065Z,18.95
2023-04-16T11:56:29.454Z,18.89
2023-04-16T11:59:17.680Z,19.10
2023-04-16T12:01:47.161Z,19.15
2023-04-16T12:04:16.722Z,19.07
2023-04-16T12:07:08.189Z,18.59
2023-04-16T12:09:39.534Z,18.31
2023-04-16T12:12:27.538Z,18.60
2023-04-16T12:14:57.000Z,18.81
2023-04-16T12:17:25.696Z,19.05
2023-04-16T12:19:58.155Z,18.77
2023-04-16T12:22:30.199Z,18.77
2023-04-16T12:24:58.947Z,18.82
2023-04-16T12:27:28.789Z,19.05
2023-04-16T12:30:07.428Z,19.25
2023-04-16T12:32:35.567Z,19.36
2023-04-16T12:35:04.068Z,19.52
2023-04-16T12:37:32.239Z,19.24
2023-04-16T12:40:00.136Z,19.46
2023-04-16T12:42:28.186Z,19.57
2023-04-16T12:44:56.069Z,19.49
2023-04-16T12:47:23.946Z,19.64
2023-04-16T12:49:51.969Z,19.82
2023-04-16T12:52:20.801Z,19.77
2023-04-16T12:54:50.302Z,19.72
2023-04-16T12:57:18.265Z,19.50
2023-04-16T12:59:47.209Z,19.28
2023-04-16T13:02:15.296Z,19.34
2023-04-16T13:04:43.409Z,19.34
2023-04-16T13:07:11.584Z,19.36
2023-04-16T13:09:40.062Z,19.06
2023-04-16T13:12:08.134Z,19.04
2023-04-16T13:14:36.085Z,18.90
2023-04-16T13:17:04.179Z,18.84
2023-04-16T13:19:32.132Z,19.00
2023-04-16T13:22:00.169Z,19.01
2023-04-16T13:24:28.120Z,19.03
2023-04-16T13:26:56.560Z,18.99
2023-04-16T13:29:24.536Z,18.95
2023-04-16T13:31:52.592Z,18.95
2023-04-16T13:34:20.991Z,18.84
2023-04-16T13:36:48.979Z,18.74
2023-04-16T13:39:17.696Z,18.77
2023-04-16T13:41:46.120Z,18.49
2023-04-16T13:44:14.054Z,18.38
2023-04-16T13:46:43.846Z,18.38
2023-04-16T13:49:12.047Z,18.18
2023-04-16T13:51:40.177Z,18.47
2023-04-16T13:54:08.146Z,18.53
2023-04-16T13:56:36.400Z,18.56
2023-04-16T13:59:04.414Z,18.61
2023-04-16T14:01:32.375Z,18.58
2023-04-16T14:04:06.091Z,18.46
2023-04-16T14:06:34.789Z,18.46
2023-04-16T14:09:02.932Z,18.39
2023-04-16T14:11:31.314Z,18.30
2023-04-16T14:13:59.600Z,18.33
2023-04-16T14:16:27.884Z,18.35
2023-04-16T14:18:56.668Z,18.25
2023-04-16T14:21:24.570Z,18.16
2023-04-16T14:23:52.926Z,18.08
2023-04-16T14:26:21.162Z,17.99
2023-04-16T14:28:49.076Z,17.76
2023-04-16T14:31:18.367Z,17.62
2023-04-16T14:33:46.979Z,17.46
2023-04-16T14:36:15.099Z,17.30
2023-04-16T14:38:43.498Z,17.36
2023-04-16T14:41:12.690Z,17.47
2023-04-16T14:43:41.509Z,17.50
2023-04-16T14:46:09.946Z,17.47
2023-04-16T14:48:38.040Z,17.43
2023-04-16T14:51:07.329Z,17.30
2023-04-16T14:53:36.675Z,17.35
2023-04-16T14:56:05.161Z,17.08
2023-04-16T14:58:33.065Z,17.05
2023-04-16T15:01:01.101Z,16.96
2023-04-16T15:03:30.048Z,16.81
2023-04-16T15:05:58.460Z,16.63
2023-04-16T15:08:27.167Z,16.49
2023-04-16T15:10:55.150Z,16.36
2023-04-16T15:13:23.007Z,16.07
2023-04-16T15:15:50.999Z,16.04
2023-04-16T15:18:19.065Z,15.97
2023-04-16T15:20:46.961Z,15.81
2023-04-16T15:23:14.886Z,15.60
2023-04-16T15:25:42.799Z,15.53
2023-04-16T15:28:10.907Z,15.44
2023-04-16T15:30:40.542Z,15.21
2023-04-16T15:33:08.909Z,15.25
2023-04-16T15:35:39.073Z,15.19
2023-04-16T15:38:07.571Z,15.12
2023-04-16T15:40:36.561Z,15.05
2023-04-16T15:43:05.885Z,14.96
2023-04-16T15:45:33.864Z,14.86
2023-04-16T15:48:01.874Z,14.82
2023-04-16T15:50:29.750Z,14.81
2023-04-16T15:52:57.824Z,14.74
2023-04-16T15:55:26.572Z,14.62
2023-04-16T15:57:54.562Z,14.56
2023-04-16T16:00:22.523Z,14.49
2023-04-16T16:02:50.810Z,14.44
2023-04-16T16:05:18.945Z,14.36
2023-04-16T16:07:47.090Z,14.23
2023-04-16T16:10:15.024Z,14.14
2023-04-16T16:12:42.963Z,14.03
2023-04-16T16:15:11.190Z,13.92
2023-04-16T16:17:40.690Z,13.89
2023-04-16T16:20:10.685Z,13.80
2023-04-16T16:22:39.499Z,13.78
2023-04-16T16:25:07.567Z,13.78
2023-04-16T16:27:36.421Z,13.79
2023-04-16T16:30:06.687Z,13.83
2023-04-16T16:32:35.001Z,13.85
2023-04-16T16:35:03.407Z,13.78
2023-04-16T16:37:31.278Z,13.77
2023-04-16T16:39:59.215Z,13.71
2023-04-16T16:42:27.345Z,13.62
2023-04-16T16:44:57.341Z,13.63
2023-04-16T16:47:25.712Z,13.65
2023-04-16T16:49:54.971Z,13.65
2023-04-16T16:52:24.023Z,13.54
2023-04-16T16:54:56.799Z,13.60
2023-04-16T16:57:25.142Z,13.56
2023-04-16T16:59:54.571Z,13.55
2023-04-16T17:02:23.310Z,13.46
2023-04-16T17:04:52.868Z,13.34
2023-04-16T17:07:20.999Z,13.26
2023-04-16T17:09:48.948Z,13.15
2023-04-16T17:12:16.920Z,13.09
2023-04-16T17:14:44.907Z,13.01
2023-04-16T17:17:12.777Z,12.90
2023-04-16T17:19:40.724Z,12.79
2023-04-16T17:22:08.710Z,12.77
2023-04-16T17:24:36.852Z,12.74
2023-04-16T17:27:04.814Z,12.80
2023-04-16T17:29:32.768Z,12.79
2023-04-16T17:32:01.051Z,12.68
2023-04-16T17:34:28.960Z,12.58
2023-04-16T17:36:56.803Z,12.58
2023-04-16T17:39:25.215Z,12.58
2023-04-16T17:41:57.398Z,12.56
2023-04-16T17:44:27.529Z,12.55
2023-04-16T17:46:55.523Z,12.58
2023-04-16T17:49:23.531Z,12.61
2023-04-16T17:51:52.834Z,12.63
2023-04-16T17:54:20.714Z,12.60
2023-04-16T17:56:48.771Z,12.55
2023-04-16T17:59:16.754Z,12.49
2023-04-16T18:01:45.055Z,12.46
2023-04-16T18:04:13.595Z,12.45
2023-04-16T18:06:42.028Z,12.44
2023-04-16T18:09:09.986Z,12.43
2023-04-16T18:11:38.179Z,12.42
2023-04-16T18:14:06.419Z,12.40
2023-04-16T18:16:34.454Z,12.39
2023-04-16T18:19:05.602Z,12.38
2023-04-16T18:21:34.081Z,12.34
2023-04-16T18:24:03.615Z,12.29
2023-04-16T18:26:35.648Z,12.20
2023-04-16T18:29:04.185Z,12.12
2023-04-16T18:31:32.278Z,12.06
2023-04-16T18:34:00.387Z,11.94
2023-04-16T18:36:28.436Z,11.87
2023-04-16T18:39:02.285Z,11.80
2023-04-16T18:41:31.352Z,11.78
2023-04-16T18:43:59.487Z,11.75
2023-04-16T18:46:27.713Z,11.73
2023-04-16T18:48:59.121Z,11.71
2023-04-16T18:51:27.477Z,11.63
2023-04-16T18:53:55.443Z,11.61
2023-04-16T18:56:23.383Z,11.63
2023-04-16T18:58:51.378Z,11.60
2023-04-16T19:01:19.323Z,11.53
2023-04-16T19:03:47.488Z,11.40
2023-04-16T19:06:15.518Z,11.43
2023-04-16T19:08:43.498Z,11.43
2023-04-16T19:11:11.402Z,11.42
2023-04-16T19:13:39.375Z,11.45
2023-04-16T19:16:11.410Z,11.45
2023-04-16T19:18:39.732Z,11.46
2023-04-16T19:21:08.014Z,11.44
2023-04-16T19:23:36.528Z,11.37
2023-04-16T19:26:04.632Z,11.27
2023-04-16T19:28:32.601Z,11.19
2023-04-16T19:31:00.486Z,11.16
2023-04-16T19:33:28.501Z,11.20
2023-04-16T19:35:56.389Z,11.13
2023-04-16T19:38:24.649Z,11.16
2023-04-16T19:40:52.925Z,11.19
2023-04-16T19:43:21.467Z,11.18
2023-04-16T19:45:53.671Z,11.15
2023-04-16T19:48:21.968Z,11.14
2023-04-16T19:50:49.973Z,11.15
2023-04-16T19:53:18.075Z,11.16
2023-04-16T19:55:46.238Z,11.16
2023-04-16T19:58:14.811Z,11.13
2023-04-16T20:00:43.437Z,11.12
2023-04-16T20:03:11.892Z,11.10
2023-04-16T20:05:39.855Z,11.09
2023-04-16T20:08:07.858Z,11.07
2023-04-16T20:10:36.163Z,10.97
2023-04-16T20:13:05.036Z,10.92
2023-04-16T20:15:33.065Z,10.89
2023-04-16T20:18:01.009Z,10.81
2023-04-16T20:20:29.199Z,10.69
2023-04-16T20:22:57.245Z,10.63
2023-04-16T20:25:26.246Z,10.60
2023-04-16T20:27:54.297Z,10.55
2023-04-16T20:30:24.553Z,10.49
2023-04-16T20:32:52.469Z,10.42
2023-04-16T20:35:20.524Z,10.33
2023-04-16T20:37:48.688Z,10.28
2023-04-16T20:40:16.651Z,10.30
2023-04-16T20:42:47.510Z,10.32
2023-04-16T20:45:15.605Z,10.35
2023-04-16T20:47:43.733Z,10.37
2023-04-16T20:50:12.272Z,10.40
2023-04-16T20:52:40.221Z,10.41
2023-04-16T20:55:08.576Z,10.41
2023-04-16T20:57:36.458Z,10.39
2023-04-16T21:00:06.623Z,10.39
2023-04-16T21:02:34.777Z,10.37
2023-04-16T21:05:03.287Z,10.35
2023-04-16T21:07:31.559Z,10.30
2023-04-16T21:10:01.253Z,10.22
2023-04-16T21:12:29.208Z,10.15
2023-04-16T21:14:57.553Z,10.09
2023-04-16T21:17:25.488Z,10.07
2023-04-16T21:19:53.412Z,10.04
2023-04-16T21:22:21.343Z,10.01
2023-04-16T21:24:49.346Z,9.98
2023-04-16T21:27:17.657Z,9.98
2023-04-16T21:29:45.686Z,9.98
2023-04-16T21:32:13.690Z,9.99
2023-04-16T21:34:41.607Z,10.01
2023-04-16T21:37:10.464Z,10.04
2023-04-16T21:39:38.455Z,10.07
2023-04-16T21:42:06.451Z,10.11
2023-04-16T21:44:34.363Z,10.14
2023-04-16T21:47:02.420Z,10.17
2023-04-16T21:49:30.512Z,10.21
2023-04-16T21:51:59.296Z,10.25
2023-04-16T21:54:27.548Z,10.26
2023-04-16T21:56:55.482Z,10.27
2023-04-16T21:59:23.493Z,10.29
2023-04-16T22:01:51.595Z,10.31
2023-04-16T22:04:26.369Z,10.29
2023-04-16T22:06:56.491Z,10.32
2023-04-16T22:09:27.455Z,10.33
2023-04-16T22:11:57.814Z,10.38
2023-04-16T22:14:25.897Z,10.38
2023-04-16T22:16:54.192Z,10.41
2023-04-16T22:19:22.392Z,10.40
2023-04-16T22:21:50.392Z,10.46
2023-04-16T22:24:18.448Z,10.51
2023-04-16T22:26:46.490Z,10.55
2023-04-16T22:29:14.448Z,10.60
2023-04-16T22:31:42.372Z,10.65
2023-04-16T22:34:10.403Z,10.68
2023-04-16T22:36:38.335Z,10.71
2023-04-16T22:39:08.716Z,10.74
2023-04-16T22:41:36.793Z,10.76
2023-04-16T22:44:04.757Z,10.77
2023-04-16T22:46:32.842Z,10.74
2023-04-16T22:49:00.890Z,10.82
2023-04-16T22:51:29.463Z,10.84
2023-04-16T22:53:57.358Z,10.85
2023-04-16T22:56:28.734Z,10.79
2023-04-16T22:58:57.068Z,10.80
2023-04-16T23:01:25.386Z,10.80
2023-04-16T23:03:53.482Z,10.76
2023-04-16T23:06:22.149Z,10.77
2023-04-16T23:08:50.154Z,10.79
2023-04-16T23:11:18.039Z,10.73
2023-04-16T23:13:45.978Z,10.60
2023-04-16T23:16:13.930Z,10.65
2023-04-16T23:18:42.210Z,10.61
2023-04-16T23:21:10.110Z,10.53
2023-04-16T23:23:37.977Z,10.57
2023-04-16T23:26:05.920Z,10.55
2023-04-16T23:28:33.926Z,10.51
2023-04-16T23:31:02.636Z,10.47
2023-04-16T23:33:31.763Z,10.44
2023-04-16T23:35:59.741Z,10.40
2023-04-16T23:38:27.705Z,10.36
2023-04-16T23:40:55.752Z,10.37
2023-04-16T23:43:23.647Z,10.33
2023-04-16T23:45:51.564Z,10.28
2023-04-16T23:48:19.522Z,10.23
2023-04-16T23:50:47.535Z,10.20
2023-04-16T23:53:15.829Z,10.15
2023-04-16T23:55:43.716Z,10.15
2023-04-16T23:58:11.660Z,10.12
